Elsenborn, Belgium

4:06 PM CET on January 20, 2017 (GMT +0100)
Elsenborn | | Change Station
Active Advisory: nederlands: fran├žais:

Elev 1870 ft 50.47 °N, 6.18 °E | Updated 11 minutes ago

Clear
Clear
30 °F
Feels Like 25 °F
N
5
Wind Variable Wind from East

Today
High -- | Low -- °F
--% Chance of Precip.
Yesterday
High -- | Low -- °F
Precip. -- in
Pressure 30.42 in
Visibility 6.2 miles
Clouds
Windchill 25 °F
Dew Point 10 °F
Humidity 44%
Rainfall 0.00 in
Snow Depth Not available.
8:25 AM 5:08 PM
Last Quarter, 43% visible
METAR EBLB 201455Z AUTO 08004KT 9999 NCD M01/M12 Q1030 BLU
Pressure 30.42 in
Visibility 6.2 miles
Clouds
Windchill 25 °F
Dew Point 10 °F
Humidity 44%
Rainfall 0.00 in
Snow Depth Not available.
8:25 AM 5:08 PM
Last Quarter, 43% visible
METAR EBLB 201455Z AUTO 08004KT 9999 NCD M01/M12 Q1030 BLU

Get Your Daily Forecast Email!

Thanks for signing up!

Be on the lookout for a verification email in your inbox.

You'll start receiving the daily forecast at 8 AM.

×

10-Day Weather Forecast

×

Almanac

Astronomy

Jan. 20, 2017 Rise Set
Actual Time
Civil Twilight
Nautical Twilight
Astronomical Twilight
Moon
Length of Visible Light
Length of Day
Tomorrow will be .
, % of the Moon is Illuminated

Today's Extremes

Country Highs Country Lows

Community

WunderPhotos

Upload Photos

1,962,540 photos uploaded!

WunderBlog® & News

Nearby

Air Quality

  Air Quality AQ Index Pollutant
Not available.

Snow Depth

Station Depth Elevation

Earthquake Activity

City Distance Mag. Time & Date
Minimum magnitude displayed is 2.5.

Coastal Water Temperatures

Place Temperature

Stations

Nearby Weather Stations

Station Location Temp. Windchill Dew Point Humidity Wind Precip. Elev Updated Type